createdAt,value
2022-12-10T00:01:51.899Z,1.90
2022-12-10T00:04:20.565Z,1.90
2022-12-10T00:06:49.478Z,1.90
2022-12-10T00:09:20.178Z,1.90
2022-12-10T00:11:50.788Z,1.80
2022-12-10T00:14:19.287Z,1.80
2022-12-10T00:21:46.553Z,1.80
2022-12-10T00:29:14.636Z,1.80
2022-12-10T00:34:13.163Z,1.80
2022-12-10T00:36:44.897Z,1.80
2022-12-10T00:39:15.833Z,1.80
2022-12-10T00:44:16.304Z,1.80
2022-12-10T00:46:45.291Z,1.80
2022-12-10T00:51:42.169Z,1.80
2022-12-10T00:59:10.656Z,1.70
2022-12-10T01:01:42.607Z,1.70
2022-12-10T01:04:15.057Z,1.70
2022-12-10T01:06:47.030Z,1.70
2022-12-10T01:09:18.643Z,1.70
2022-12-10T01:11:49.536Z,1.70
2022-12-10T01:14:22.280Z,1.70
2022-12-10T01:16:55.246Z,1.70
2022-12-10T01:24:22.244Z,1.60
2022-12-10T01:26:50.874Z,1.60
2022-12-10T01:34:21.958Z,1.60
2022-12-10T01:36:53.882Z,1.60
2022-12-10T01:39:24.412Z,1.60
2022-12-10T01:41:56.256Z,1.60
2022-12-10T01:45:07.595Z,1.60
2022-12-10T01:47:36.599Z,1.60
2022-12-10T01:50:09.476Z,1.60
2022-12-10T01:52:40.794Z,1.60
2022-12-10T01:55:42.747Z,1.60
2022-12-10T02:00:52.026Z,1.50
2022-12-10T02:03:35.530Z,1.50
2022-12-10T02:06:17.882Z,1.50
2022-12-10T02:08:59.418Z,1.50
2022-12-10T02:11:35.190Z,1.50
2022-12-10T02:14:11.255Z,1.50
2022-12-10T02:16:46.520Z,1.50
2022-12-10T02:19:23.639Z,1.50
2022-12-10T02:21:55.989Z,1.50
2022-12-10T02:24:34.653Z,1.40
2022-12-10T02:27:12.064Z,1.50
2022-12-10T02:29:43.942Z,1.50
2022-12-10T02:32:18.697Z,1.50
2022-12-10T02:37:31.250Z,1.50
2022-12-10T02:40:04.336Z,1.40
2022-12-10T02:42:42.858Z,1.40
2022-12-10T02:45:14.408Z,1.40
2022-12-10T02:47:43.694Z,1.40
2022-12-10T02:50:16.664Z,1.40
2022-12-10T02:52:44.944Z,1.40
2022-12-10T02:55:15.627Z,1.40
2022-12-10T02:58:01.326Z,1.40
2022-12-10T03:00:40.191Z,1.30
2022-12-10T03:03:35.045Z,1.30
2022-12-10T03:06:14.494Z,1.30
2022-12-10T03:08:49.286Z,1.30
2022-12-10T03:11:19.649Z,1.30
2022-12-10T03:13:56.910Z,1.30
2022-12-10T03:16:31.892Z,1.30
2022-12-10T03:19:07.699Z,1.30
2022-12-10T03:21:39.812Z,1.30
2022-12-10T03:24:10.545Z,1.20
2022-12-10T03:26:40.951Z,1.30
2022-12-10T03:29:12.829Z,1.30
2022-12-10T03:31:43.813Z,1.20
2022-12-10T03:34:13.271Z,1.20
2022-12-10T03:36:42.872Z,1.20
2022-12-10T03:44:08.520Z,1.20
2022-12-10T03:49:07.048Z,1.20
2022-12-10T04:06:28.140Z,1.20
2022-12-10T04:19:14.453Z,1.20
2022-12-10T04:22:04.433Z,1.20
2022-12-10T04:24:52.647Z,1.20
2022-12-10T04:27:24.836Z,1.10
2022-12-10T04:29:54.523Z,1.10
2022-12-10T04:32:23.976Z,1.20
2022-12-10T04:34:52.254Z,1.20
2022-12-10T04:37:22.203Z,1.10
2022-12-10T04:39:52.507Z,1.20
2022-12-10T04:49:47.975Z,1.10
2022-12-10T04:52:18.278Z,1.20
2022-12-10T04:54:48.059Z,1.10
2022-12-10T04:57:16.603Z,1.10
2022-12-10T05:04:42.139Z,1.10
2022-12-10T05:07:10.407Z,1.10
2022-12-10T05:09:40.160Z,1.10
2022-12-10T05:12:09.822Z,1.10
2022-12-10T05:27:19.795Z,1.10
2022-12-10T05:44:41.095Z,1.10
2022-12-10T05:47:09.424Z,1.20
2022-12-10T05:54:35.371Z,1.20
2022-12-10T05:57:03.655Z,1.10
2022-12-10T05:59:31.906Z,1.10
2022-12-10T06:02:01.508Z,1.10
2022-12-10T06:19:22.816Z,1.00
2022-12-10T06:24:19.744Z,1.00
2022-12-10T06:34:23.396Z,1.00
2022-12-10T06:41:48.707Z,1.00
2022-12-10T06:51:44.041Z,0.90
2022-12-10T06:59:09.344Z,0.90
2022-12-10T07:04:07.916Z,0.90
2022-12-10T07:06:36.262Z,0.90
2022-12-10T07:09:06.031Z,0.90
2022-12-10T07:14:03.113Z,0.90
2022-12-10T07:16:33.936Z,0.90
2022-12-10T07:19:04.718Z,0.90
2022-12-10T07:21:37.006Z,0.90
2022-12-10T07:24:09.715Z,0.90
2022-12-10T07:26:40.790Z,0.90
2022-12-10T07:29:14.427Z,0.90
2022-12-10T07:34:12.959Z,0.90
2022-12-10T07:36:41.414Z,0.90
2022-12-10T07:39:17.911Z,0.90
2022-12-10T07:41:46.682Z,1.00
2022-12-10T07:44:15.262Z,1.00
2022-12-10T07:54:10.895Z,1.00
2022-12-10T07:56:39.226Z,1.00
2022-12-10T08:01:36.533Z,1.00
2022-12-10T08:04:05.271Z,1.00
2022-12-10T08:06:33.632Z,1.00
2022-12-10T08:09:02.092Z,1.00
2022-12-10T08:11:31.829Z,1.10
2022-12-10T08:16:31.972Z,1.10
2022-12-10T08:19:02.734Z,1.10
2022-12-10T08:21:34.286Z,1.10
2022-12-10T08:26:34.630Z,1.10
2022-12-10T08:31:37.403Z,1.20
2022-12-10T08:34:07.487Z,1.20
2022-12-10T08:41:34.394Z,1.30
2022-12-10T08:44:02.623Z,1.30
2022-12-10T08:48:59.684Z,1.30
2022-12-10T08:51:29.098Z,1.30
2022-12-10T08:53:57.915Z,1.40
2022-12-10T08:56:26.372Z,1.30
2022-12-10T08:58:55.990Z,1.30
2022-12-10T09:06:25.005Z,1.30
2022-12-10T09:11:25.515Z,1.40
2022-12-10T09:26:23.768Z,3.50
2022-12-10T09:28:52.403Z,3.80
2022-12-10T09:31:23.019Z,3.90
2022-12-10T09:33:55.442Z,4.00
2022-12-10T09:36:28.690Z,4.10
2022-12-10T09:39:00.172Z,4.20
2022-12-10T09:41:52.847Z,4.40
2022-12-10T09:44:33.979Z,4.60
2022-12-10T09:47:09.909Z,4.60
2022-12-10T09:49:57.055Z,4.60
2022-12-10T09:52:28.732Z,4.50
2022-12-10T09:55:03.307Z,4.40
2022-12-10T09:57:37.104Z,4.20
2022-12-10T10:00:18.649Z,4.10
2022-12-10T10:02:48.392Z,4.00
2022-12-10T10:05:23.742Z,3.90
2022-12-10T10:07:56.254Z,3.80
2022-12-10T10:10:28.966Z,3.70
2022-12-10T10:13:02.002Z,3.60
2022-12-10T10:15:34.406Z,3.60
2022-12-10T10:18:19.780Z,3.50
2022-12-10T10:20:48.351Z,3.50
2022-12-10T10:23:17.816Z,3.60
2022-12-10T10:28:22.232Z,3.70
2022-12-10T10:30:52.185Z,3.80
2022-12-10T10:33:21.864Z,3.80
2022-12-10T10:35:55.584Z,3.90
2022-12-10T10:38:27.876Z,3.90
2022-12-10T10:40:58.705Z,3.90
2022-12-10T10:43:30.217Z,3.90
2022-12-10T10:46:03.203Z,3.80
2022-12-10T10:48:33.309Z,3.80
2022-12-10T10:51:10.077Z,3.80
2022-12-10T10:53:46.046Z,3.70
2022-12-10T10:56:18.857Z,3.70
2022-12-10T10:58:55.580Z,3.80
2022-12-10T11:01:26.552Z,3.90
2022-12-10T11:04:01.236Z,4.00
2022-12-10T11:06:30.706Z,4.00
2022-12-10T11:09:00.617Z,3.80
2022-12-10T11:11:36.523Z,3.80
2022-12-10T11:14:25.307Z,3.80
2022-12-10T11:19:34.968Z,3.70
2022-12-10T11:22:19.807Z,3.70
2022-12-10T11:24:49.660Z,3.60
2022-12-10T11:27:31.946Z,3.60
2022-12-10T11:30:05.499Z,3.60
2022-12-10T11:33:09.257Z,3.60
2022-12-10T11:35:52.767Z,3.60
2022-12-10T11:38:29.492Z,3.50
2022-12-10T11:41:08.636Z,3.60
2022-12-10T11:43:57.257Z,3.60
2022-12-10T11:46:51.018Z,3.60
2022-12-10T11:49:31.542Z,3.50
2022-12-10T11:52:13.148Z,3.60
2022-12-10T11:55:04.662Z,3.60
2022-12-10T11:57:45.856Z,3.60
2022-12-10T12:00:23.824Z,3.60
2022-12-10T12:03:14.308Z,3.50
2022-12-10T12:06:08.351Z,3.50
2022-12-10T12:08:49.643Z,3.40
2022-12-10T12:11:32.845Z,3.40
2022-12-10T12:14:09.188Z,3.40
2022-12-10T12:16:45.283Z,3.50
2022-12-10T12:19:20.332Z,3.50
2022-12-10T12:21:52.035Z,3.60
2022-12-10T12:24:29.360Z,3.70
2022-12-10T12:27:04.836Z,3.80
2022-12-10T12:29:39.277Z,3.80
2022-12-10T12:32:19.251Z,3.80
2022-12-10T12:34:57.337Z,3.80
2022-12-10T12:37:38.394Z,3.80
2022-12-10T12:40:15.406Z,3.90
2022-12-10T12:42:51.325Z,3.90
2022-12-10T12:45:26.956Z,3.90
2022-12-10T12:48:03.747Z,3.90
2022-12-10T12:50:45.831Z,3.90
2022-12-10T12:53:17.444Z,3.80
2022-12-10T12:56:00.147Z,3.80
2022-12-10T12:58:40.321Z,3.80
2022-12-10T13:01:27.854Z,3.80
2022-12-10T13:06:30.763Z,3.90
2022-12-10T13:09:28.706Z,4.00
2022-12-10T13:12:30.953Z,3.90
2022-12-10T13:15:20.293Z,4.00
2022-12-10T13:18:21.629Z,3.90
2022-12-10T13:20:52.160Z,3.90
2022-12-10T13:23:40.441Z,3.90
2022-12-10T13:26:27.743Z,3.90
2022-12-10T13:29:13.370Z,3.90
2022-12-10T13:31:41.886Z,3.80
2022-12-10T13:34:34.470Z,3.70
2022-12-10T13:37:37.976Z,3.70
2022-12-10T13:40:26.176Z,3.60
2022-12-10T13:43:19.090Z,3.50
2022-12-10T13:45:48.705Z,3.40
2022-12-10T13:48:36.188Z,3.40
2022-12-10T13:51:28.460Z,3.40
2022-12-10T13:54:26.564Z,3.40
2022-12-10T13:57:06.320Z,3.40
2022-12-10T13:59:45.040Z,3.30
2022-12-10T14:02:48.192Z,3.40
2022-12-10T14:05:41.407Z,3.40
2022-12-10T14:08:17.733Z,3.50
2022-12-10T14:13:20.391Z,3.60
2022-12-10T14:15:56.317Z,3.60
2022-12-10T14:18:26.516Z,3.90
2022-12-10T14:20:57.015Z,4.10
2022-12-10T14:23:41.107Z,4.30
2022-12-10T14:26:15.577Z,4.40
2022-12-10T14:28:48.463Z,4.60
2022-12-10T14:31:21.352Z,4.70
2022-12-10T14:33:53.738Z,4.70
2022-12-10T14:36:29.608Z,4.70
2022-12-10T14:38:58.573Z,4.70
2022-12-10T14:41:28.208Z,4.60
2022-12-10T14:43:56.959Z,4.60
2022-12-10T14:46:30.096Z,4.40
2022-12-10T14:49:00.216Z,4.40
2022-12-10T14:51:35.920Z,4.30
2022-12-10T14:54:04.504Z,4.20
2022-12-10T14:56:36.646Z,4.20
2022-12-10T14:59:14.329Z,4.10
2022-12-10T15:01:48.249Z,4.00
2022-12-10T15:04:26.422Z,3.80
2022-12-10T15:07:00.702Z,3.70
2022-12-10T15:09:29.418Z,3.50
2022-12-10T15:11:59.659Z,3.30
2022-12-10T15:14:31.742Z,3.20
2022-12-10T15:17:03.247Z,3.00
2022-12-10T15:19:36.464Z,2.80
2022-12-10T15:22:20.557Z,2.70
2022-12-10T15:27:19.635Z,2.50
2022-12-10T15:32:22.023Z,2.10
2022-12-10T15:34:56.630Z,2.20
2022-12-10T15:37:26.422Z,2.10
2022-12-10T15:39:57.615Z,2.00
2022-12-10T15:42:47.195Z,1.90
2022-12-10T15:45:26.847Z,1.80
2022-12-10T15:47:58.544Z,1.80
2022-12-10T15:50:28.467Z,1.70
2022-12-10T16:00:24.941Z,1.50
2022-12-10T16:02:57.544Z,1.50
2022-12-10T16:05:32.140Z,1.40
2022-12-10T16:08:04.546Z,1.40
2022-12-10T16:10:33.059Z,1.30
2022-12-10T16:13:04.483Z,1.30
2022-12-10T16:15:37.571Z,1.20
2022-12-10T16:18:07.501Z,1.20
2022-12-10T16:20:38.073Z,1.20
2022-12-10T16:25:38.599Z,1.20
2022-12-10T16:30:47.372Z,1.20
2022-12-10T16:35:49.105Z,1.20
2022-12-10T16:40:47.591Z,1.10
2022-12-10T16:43:19.537Z,1.20
2022-12-10T16:50:48.872Z,1.20
2022-12-10T16:53:22.661Z,1.20
2022-12-10T16:58:21.863Z,1.30
2022-12-10T17:00:53.593Z,1.20
2022-12-10T17:03:25.713Z,1.30
2022-12-10T17:05:57.428Z,1.30
2022-12-10T17:08:27.643Z,1.30
2022-12-10T17:11:17.281Z,1.30
2022-12-10T17:13:47.961Z,1.20
2022-12-10T17:16:23.894Z,1.20
2022-12-10T17:18:53.403Z,1.20
2022-12-10T17:21:23.398Z,1.10
2022-12-10T17:23:52.110Z,1.10
2022-12-10T17:26:28.923Z,1.00
2022-12-10T17:29:03.442Z,0.90
2022-12-10T17:34:01.206Z,0.80
2022-12-10T17:36:30.864Z,0.80
2022-12-10T17:46:27.473Z,0.60
2022-12-10T17:48:55.732Z,0.50
2022-12-10T17:51:24.162Z,0.40
2022-12-10T17:53:53.992Z,0.30
2022-12-10T17:56:25.015Z,0.30
2022-12-10T17:58:54.040Z,0.20
2022-12-10T18:01:23.039Z,0.20
2022-12-10T18:03:51.490Z,0.10
2022-12-10T18:06:22.184Z,0.10
2022-12-10T18:08:51.314Z,0.00
2022-12-10T18:11:24.052Z,0.00
2022-12-10T18:16:28.088Z,-0.10
2022-12-10T18:21:27.166Z,-0.20
2022-12-10T18:26:27.050Z,-0.30
2022-12-10T18:28:58.100Z,-0.30
2022-12-10T18:31:29.692Z,-0.30
2022-12-10T18:34:02.401Z,-0.40
2022-12-10T18:36:33.824Z,-0.40
2022-12-10T18:39:08.435Z,-0.40
2022-12-10T18:41:38.063Z,-0.50
2022-12-10T18:44:06.483Z,-0.50
2022-12-10T18:46:37.422Z,-0.60
2022-12-10T18:49:06.308Z,-0.60
2022-12-10T18:56:33.009Z,-0.60
2022-12-10T18:59:02.996Z,-0.70
2022-12-10T19:01:31.887Z,-0.70
2022-12-10T19:04:00.456Z,-0.70
2022-12-10T19:06:30.882Z,-0.70
2022-12-10T19:11:51.954Z,-0.70
2022-12-10T19:14:23.798Z,-0.80
2022-12-10T19:21:49.368Z,-0.90
2022-12-10T19:29:21.465Z,-1.00
2022-12-10T19:31:51.996Z,-1.00
2022-12-10T19:34:21.888Z,-1.00
2022-12-10T19:36:50.731Z,-1.00
2022-12-10T19:39:22.195Z,-1.00
2022-12-10T19:49:19.907Z,-1.00
2022-12-10T19:51:49.674Z,-1.00
2022-12-10T19:54:18.255Z,-1.10
2022-12-10T19:59:18.888Z,-1.10
2022-12-10T20:01:48.231Z,-1.10
2022-12-10T20:04:19.450Z,-1.10
2022-12-10T20:06:49.889Z,-1.20
2022-12-10T20:09:21.125Z,-1.20
2022-12-10T20:11:50.256Z,-1.20
2022-12-10T20:16:49.662Z,-1.20
2022-12-10T20:19:23.164Z,-1.20
2022-12-10T20:24:20.485Z,-1.30
2022-12-10T20:26:50.581Z,-1.30
2022-12-10T20:29:21.651Z,-1.40
2022-12-10T20:31:51.932Z,-1.30
2022-12-10T20:34:22.781Z,-1.30
2022-12-10T20:36:51.171Z,-1.40
2022-12-10T20:39:23.081Z,-1.60
2022-12-10T20:41:53.948Z,-1.40
2022-12-10T20:44:23.840Z,-1.40
2022-12-10T20:46:53.788Z,-1.40
2022-12-10T20:56:54.172Z,-1.50
2022-12-10T21:01:51.492Z,-1.50
2022-12-10T21:06:50.390Z,-1.60
2022-12-10T21:11:47.264Z,-1.60
2022-12-10T21:14:51.715Z,-1.60
2022-12-10T21:19:33.367Z,-1.60
2022-12-10T21:22:03.087Z,-1.60
2022-12-10T21:24:31.470Z,-1.60
2022-12-10T21:31:57.007Z,-1.60
2022-12-10T21:39:25.574Z,-1.60
2022-12-10T21:49:37.249Z,-1.60
2022-12-10T21:52:06.803Z,-1.60
2022-12-10T21:54:36.420Z,-1.60
2022-12-10T21:59:33.748Z,-1.60
2022-12-10T22:02:02.084Z,-1.60
2022-12-10T22:11:57.478Z,-1.70
2022-12-10T22:19:22.840Z,-1.80
2022-12-10T22:29:18.044Z,-1.90
2022-12-10T22:39:12.516Z,-2.00
2022-12-10T22:41:40.785Z,-2.00
2022-12-10T22:44:10.931Z,-2.00
2022-12-10T22:46:40.535Z,-2.10
2022-12-10T22:49:08.897Z,-2.10
2022-12-10T22:51:37.163Z,-2.10
2022-12-10T22:54:05.839Z,-2.10
2022-12-10T22:59:02.725Z,-2.20
2022-12-10T23:04:00.859Z,-2.20
2022-12-10T23:06:29.573Z,-2.20
2022-12-10T23:21:24.202Z,-2.20
2022-12-10T23:26:22.482Z,-2.20
2022-12-10T23:31:19.758Z,-2.20
2022-12-10T23:38:46.527Z,-2.10
2022-12-10T23:46:12.333Z,-2.00
2022-12-10T23:48:40.939Z,-2.00
2022-12-10T23:56:18.058Z,-1.90
